sensor_id;sensor_type;location;lat;lon;timestamp;temperature;humidity
20827;DHT22;10574;52.508;13.236;2022-09-03T00:02:11;15.10;99.90
20827;DHT22;10574;52.508;13.236;2022-09-03T00:04:52;15.10;99.90
20827;DHT22;10574;52.508;13.236;2022-09-03T00:07:27;15.00;99.90
20827;DHT22;10574;52.508;13.236;2022-09-03T00:09:55;15.00;99.90
20827;DHT22;10574;52.508;13.236;2022-09-03T00:12:28;15.00;99.90
20827;DHT22;10574;52.508;13.236;2022-09-03T00:15:14;15.00;99.90
20827;DHT22;10574;52.508;13.236;2022-09-03T00:17:48;15.00;99.90
20827;DHT22;10574;52.508;13.236;2022-09-03T00:20:29;14.90;99.90
20827;DHT22;10574;52.508;13.236;2022-09-03T00:22:58;14.90;99.90
20827;DHT22;10574;52.508;13.236;2022-09-03T00:25:32;14.80;99.90
20827;DHT22;10574;52.508;13.236;2022-09-03T00:27:58;14.80;99.90
20827;DHT22;10574;52.508;13.236;2022-09-03T00:30:27;14.80;99.90
20827;DHT22;10574;52.508;13.236;2022-09-03T00:33:05;14.80;99.90
20827;DHT22;10574;52.508;13.236;2022-09-03T00:38:24;14.70;99.90
20827;DHT22;10574;52.508;13.236;2022-09-03T00:46:55;14.70;99.90
20827;DHT22;10574;52.508;13.236;2022-09-03T00:52:15;14.60;99.90
20827;DHT22;10574;52.508;13.236;2022-09-03T01:05:10;14.60;99.90
20827;DHT22;10574;52.508;13.236;2022-09-03T01:21:16;14.40;99.90
20827;DHT22;10574;52.508;13.236;2022-09-03T01:26:40;14.20;99.90
20827;DHT22;10574;52.508;13.236;2022-09-03T01:35:13;14.30;99.90
20827;DHT22;10574;52.508;13.236;2022-09-03T01:40:32;14.30;99.90
20827;DHT22;10574;52.508;13.236;2022-09-03T01:46:05;14.20;99.90
20827;DHT22;10574;52.508;13.236;2022-09-03T01:48:50;14.30;99.90
20827;DHT22;10574;52.508;13.236;2022-09-03T01:51:20;14.30;99.90
20827;DHT22;10574;52.508;13.236;2022-09-03T01:57:16;14.20;99.90
20827;DHT22;10574;52.508;13.236;2022-09-03T01:59:45;14.20;99.90
20827;DHT22;10574;52.508;13.236;2022-09-03T02:02:20;14.20;99.90
20827;DHT22;10574;52.508;13.236;2022-09-03T02:05:01;14.10;99.90
20827;DHT22;10574;52.508;13.236;2022-09-03T02:07:32;14.10;99.90
20827;DHT22;10574;52.508;13.236;2022-09-03T02:10:02;14.10;99.90
20827;DHT22;10574;52.508;13.236;2022-09-03T02:12:32;14.10;99.90
20827;DHT22;10574;52.508;13.236;2022-09-03T02:15:09;14.10;99.90
20827;DHT22;10574;52.508;13.236;2022-09-03T02:17:33;14.00;99.90
20827;DHT22;10574;52.508;13.236;2022-09-03T02:20:03;14.00;99.90
20827;DHT22;10574;52.508;13.236;2022-09-03T02:22:31;14.00;99.90
20827;DHT22;10574;52.508;13.236;2022-09-03T02:25:00;14.00;99.90
20827;DHT22;10574;52.508;13.236;2022-09-03T02:27:28;14.00;99.90
20827;DHT22;10574;52.508;13.236;2022-09-03T02:29:56;14.00;99.90
20827;DHT22;10574;52.508;13.236;2022-09-03T02:32:24;14.00;99.90
20827;DHT22;10574;52.508;13.236;2022-09-03T02:34:52;13.90;99.90
20827;DHT22;10574;52.508;13.236;2022-09-03T02:37:19;13.90;99.90
20827;DHT22;10574;52.508;13.236;2022-09-03T02:39:47;13.80;99.90
20827;DHT22;10574;52.508;13.236;2022-09-03T02:42:15;13.80;99.90
20827;DHT22;10574;52.508;13.236;2022-09-03T02:44:52;13.80;99.90
20827;DHT22;10574;52.508;13.236;2022-09-03T02:47:20;13.80;99.90
20827;DHT22;10574;52.508;13.236;2022-09-03T02:49:51;13.80;99.90
20827;DHT22;10574;52.508;13.236;2022-09-03T02:52:18;13.80;99.90
20827;DHT22;10574;52.508;13.236;2022-09-03T02:54:46;13.80;99.90
20827;DHT22;10574;52.508;13.236;2022-09-03T02:57:15;13.70;99.90
20827;DHT22;10574;52.508;13.236;2022-09-03T02:59:43;13.70;99.90
20827;DHT22;10574;52.508;13.236;2022-09-03T03:02:12;13.70;99.90
20827;DHT22;10574;52.508;13.236;2022-09-03T03:04:40;13.70;99.90
20827;DHT22;10574;52.508;13.236;2022-09-03T03:07:09;13.70;99.90
20827;DHT22;10574;52.508;13.236;2022-09-03T03:09:37;13.60;99.90
20827;DHT22;10574;52.508;13.236;2022-09-03T03:12:05;13.70;99.90
20827;DHT22;10574;52.508;13.236;2022-09-03T03:14:32;13.60;99.90
20827;DHT22;10574;52.508;13.236;2022-09-03T03:17:00;13.60;99.90
20827;DHT22;10574;52.508;13.236;2022-09-03T03:19:27;13.60;99.90
20827;DHT22;10574;52.508;13.236;2022-09-03T03:21:55;13.60;99.90
20827;DHT22;10574;52.508;13.236;2022-09-03T03:24:22;13.60;99.90
20827;DHT22;10574;52.508;13.236;2022-09-03T03:26:50;13.60;99.90
20827;DHT22;10574;52.508;13.236;2022-09-03T03:29:18;13.50;99.90
20827;DHT22;10574;52.508;13.236;2022-09-03T03:31:46;13.60;99.90
20827;DHT22;10574;52.508;13.236;2022-09-03T03:34:13;13.50;99.90
20827;DHT22;10574;52.508;13.236;2022-09-03T03:36:41;13.40;99.90
20827;DHT22;10574;52.508;13.236;2022-09-03T03:39:09;13.40;99.90
20827;DHT22;10574;52.508;13.236;2022-09-03T03:41:37;13.40;99.90
20827;DHT22;10574;52.508;13.236;2022-09-03T03:44:06;13.40;99.90
20827;DHT22;10574;52.508;13.236;2022-09-03T03:46:37;13.40;99.90
20827;DHT22;10574;52.508;13.236;2022-09-03T03:49:06;13.40;99.90
20827;DHT22;10574;52.508;13.236;2022-09-03T03:51:35;13.40;99.90
20827;DHT22;10574;52.508;13.236;2022-09-03T03:54:03;13.30;99.90
20827;DHT22;10574;52.508;13.236;2022-09-03T03:56:31;13.30;99.90
20827;DHT22;10574;52.508;13.236;2022-09-03T03:59:00;13.30;99.90
20827;DHT22;10574;52.508;13.236;2022-09-03T04:01:28;13.30;99.90
20827;DHT22;10574;52.508;13.236;2022-09-03T04:03:57;13.20;99.90
20827;DHT22;10574;52.508;13.236;2022-09-03T04:06:27;13.20;99.90
20827;DHT22;10574;52.508;13.236;2022-09-03T04:08:55;13.20;99.90
20827;DHT22;10574;52.508;13.236;2022-09-03T04:11:23;13.20;99.90
20827;DHT22;10574;52.508;13.236;2022-09-03T04:13:52;13.20;99.90
20827;DHT22;10574;52.508;13.236;2022-09-03T04:16:22;13.20;99.90
20827;DHT22;10574;52.508;13.236;2022-09-03T04:18:51;13.30;99.90
20827;DHT22;10574;52.508;13.236;2022-09-03T04:21:29;13.30;99.90
20827;DHT22;10574;52.508;13.236;2022-09-03T04:23:53;13.30;99.90
20827;DHT22;10574;52.508;13.236;2022-09-03T04:26:28;13.30;99.90
20827;DHT22;10574;52.508;13.236;2022-09-03T04:29:02;13.30;99.90
20827;DHT22;10574;52.508;13.236;2022-09-03T04:31:31;13.30;99.90
20827;DHT22;10574;52.508;13.236;2022-09-03T04:33:59;13.30;99.90
20827;DHT22;10574;52.508;13.236;2022-09-03T04:36:28;13.30;99.90
20827;DHT22;10574;52.508;13.236;2022-09-03T04:38:58;13.30;99.90
20827;DHT22;10574;52.508;13.236;2022-09-03T04:41:29;13.30;99.90
20827;DHT22;10574;52.508;13.236;2022-09-03T04:43:59;13.30;99.90
20827;DHT22;10574;52.508;13.236;2022-09-03T04:46:27;13.30;99.90
20827;DHT22;10574;52.508;13.236;2022-09-03T04:48:58;13.30;99.90
20827;DHT22;10574;52.508;13.236;2022-09-03T04:51:27;13.20;99.90
20827;DHT22;10574;52.508;13.236;2022-09-03T04:53:57;13.30;99.90
20827;DHT22;10574;52.508;13.236;2022-09-03T04:56:28;13.30;99.90
20827;DHT22;10574;52.508;13.236;2022-09-03T04:58:58;13.30;99.90
20827;DHT22;10574;52.508;13.236;2022-09-03T05:01:28;13.30;99.90
20827;DHT22;10574;52.508;13.236;2022-09-03T05:03:58;13.40;99.90
20827;DHT22;10574;52.508;13.236;2022-09-03T05:06:27;13.40;99.90
20827;DHT22;10574;52.508;13.236;2022-09-03T05:08:55;13.60;99.90
20827;DHT22;10574;52.508;13.236;2022-09-03T05:11:25;14.10;99.90
20827;DHT22;10574;52.508;13.236;2022-09-03T05:13:55;14.80;99.90
20827;DHT22;10574;52.508;13.236;2022-09-03T05:16:24;15.20;99.90
20827;DHT22;10574;52.508;13.236;2022-09-03T05:18:55;15.50;99.90
20827;DHT22;10574;52.508;13.236;2022-09-03T05:21:23;15.40;99.90
20827;DHT22;10574;52.508;13.236;2022-09-03T05:23:52;15.70;99.90
20827;DHT22;10574;52.508;13.236;2022-09-03T05:26:23;16.10;99.90
20827;DHT22;10574;52.508;13.236;2022-09-03T05:28:56;16.10;99.90
20827;DHT22;10574;52.508;13.236;2022-09-03T05:31:26;16.30;99.90
20827;DHT22;10574;52.508;13.236;2022-09-03T05:33:56;16.20;99.90
20827;DHT22;10574;52.508;13.236;2022-09-03T05:36:28;16.80;99.90
20827;DHT22;10574;52.508;13.236;2022-09-03T05:38:57;16.90;99.90
20827;DHT22;10574;52.508;13.236;2022-09-03T05:41:26;16.80;99.90
20827;DHT22;10574;52.508;13.236;2022-09-03T05:43:55;16.60;99.90
20827;DHT22;10574;52.508;13.236;2022-09-03T05:46:27;16.40;99.90
20827;DHT22;10574;52.508;13.236;2022-09-03T05:49:06;16.80;99.90
20827;DHT22;10574;52.508;13.236;2022-09-03T05:51:35;16.60;99.90
20827;DHT22;10574;52.508;13.236;2022-09-03T05:54:05;17.00;99.90
20827;DHT22;10574;52.508;13.236;2022-09-03T05:56:36;16.20;99.90
20827;DHT22;10574;52.508;13.236;2022-09-03T05:59:06;15.40;99.90
20827;DHT22;10574;52.508;13.236;2022-09-03T06:01:44;15.00;99.90
20827;DHT22;10574;52.508;13.236;2022-09-03T06:04:10;14.60;99.90
20827;DHT22;10574;52.508;13.236;2022-09-03T06:06:40;14.60;99.90
20827;DHT22;10574;52.508;13.236;2022-09-03T06:09:13;14.60;99.90
20827;DHT22;10574;52.508;13.236;2022-09-03T06:11:42;14.60;99.90
20827;DHT22;10574;52.508;13.236;2022-09-03T06:14:12;14.40;99.90
20827;DHT22;10574;52.508;13.236;2022-09-03T06:16:44;14.20;99.90
20827;DHT22;10574;52.508;13.236;2022-09-03T06:19:13;14.00;99.90
20827;DHT22;10574;52.508;13.236;2022-09-03T06:21:42;14.00;99.90
20827;DHT22;10574;52.508;13.236;2022-09-03T06:24:12;14.00;99.90
20827;DHT22;10574;52.508;13.236;2022-09-03T06:26:40;14.10;99.90
20827;DHT22;10574;52.508;13.236;2022-09-03T06:29:08;14.00;99.90
20827;DHT22;10574;52.508;13.236;2022-09-03T06:31:36;14.10;99.90
20827;DHT22;10574;52.508;13.236;2022-09-03T06:34:04;14.10;99.90
20827;DHT22;10574;52.508;13.236;2022-09-03T06:36:32;14.10;99.90
20827;DHT22;10574;52.508;13.236;2022-09-03T06:39:00;14.20;99.90
20827;DHT22;10574;52.508;13.236;2022-09-03T06:41:30;14.20;99.90
20827;DHT22;10574;52.508;13.236;2022-09-03T06:44:02;14.30;99.90
20827;DHT22;10574;52.508;13.236;2022-09-03T06:46:35;14.20;99.90
20827;DHT22;10574;52.508;13.236;2022-09-03T06:49:04;14.10;99.90
20827;DHT22;10574;52.508;13.236;2022-09-03T06:51:32;14.20;99.90
20827;DHT22;10574;52.508;13.236;2022-09-03T06:54:03;14.30;99.90
20827;DHT22;10574;52.508;13.236;2022-09-03T06:56:31;14.30;99.90
20827;DHT22;10574;52.508;13.236;2022-09-03T06:59:03;14.40;99.90
20827;DHT22;10574;52.508;13.236;2022-09-03T07:01:30;14.40;99.90
20827;DHT22;10574;52.508;13.236;2022-09-03T07:04:03;14.40;99.90
20827;DHT22;10574;52.508;13.236;2022-09-03T07:06:34;14.60;99.90
20827;DHT22;10574;52.508;13.236;2022-09-03T07:09:06;14.70;99.90
20827;DHT22;10574;52.508;13.236;2022-09-03T07:11:35;14.70;99.90
20827;DHT22;10574;52.508;13.236;2022-09-03T07:14:05;14.70;99.90
20827;DHT22;10574;52.508;13.236;2022-09-03T07:16:35;14.80;99.90
20827;DHT22;10574;52.508;13.236;2022-09-03T07:19:04;15.00;99.90
20827;DHT22;10574;52.508;13.236;2022-09-03T07:21:33;15.00;99.90
20827;DHT22;10574;52.508;13.236;2022-09-03T07:24:04;15.10;99.90
20827;DHT22;10574;52.508;13.236;2022-09-03T07:26:35;15.10;99.90
20827;DHT22;10574;52.508;13.236;2022-09-03T07:29:04;15.00;99.90
20827;DHT22;10574;52.508;13.236;2022-09-03T07:31:40;15.00;99.90
20827;DHT22;10574;52.508;13.236;2022-09-03T07:34:09;15.10;99.90
20827;DHT22;10574;52.508;13.236;2022-09-03T07:36:40;15.10;99.90
20827;DHT22;10574;52.508;13.236;2022-09-03T07:39:09;15.20;99.90
20827;DHT22;10574;52.508;13.236;2022-09-03T07:41:38;15.10;99.90
20827;DHT22;10574;52.508;13.236;2022-09-03T07:44:07;15.20;99.90
20827;DHT22;10574;52.508;13.236;2022-09-03T07:46:36;15.40;99.90
20827;DHT22;10574;52.508;13.236;2022-09-03T07:49:05;15.40;99.90
20827;DHT22;10574;52.508;13.236;2022-09-03T07:51:36;15.60;99.90
20827;DHT22;10574;52.508;13.236;2022-09-03T07:54:07;15.80;99.90
20827;DHT22;10574;52.508;13.236;2022-09-03T07:56:37;15.90;99.90
20827;DHT22;10574;52.508;13.236;2022-09-03T07:59:05;16.00;99.90
20827;DHT22;10574;52.508;13.236;2022-09-03T08:01:34;16.00;99.90
20827;DHT22;10574;52.508;13.236;2022-09-03T08:04:02;16.00;99.90
20827;DHT22;10574;52.508;13.236;2022-09-03T08:06:32;15.90;99.90
20827;DHT22;10574;52.508;13.236;2022-09-03T08:09:03;15.90;99.90
20827;DHT22;10574;52.508;13.236;2022-09-03T08:11:32;15.90;99.90
20827;DHT22;10574;52.508;13.236;2022-09-03T08:14:02;16.00;99.90
20827;DHT22;10574;52.508;13.236;2022-09-03T08:16:33;16.10;99.90
20827;DHT22;10574;52.508;13.236;2022-09-03T08:19:02;16.10;99.90
20827;DHT22;10574;52.508;13.236;2022-09-03T08:21:31;16.20;99.90
20827;DHT22;10574;52.508;13.236;2022-09-03T08:23:59;16.30;99.90
20827;DHT22;10574;52.508;13.236;2022-09-03T08:26:35;16.30;99.90
20827;DHT22;10574;52.508;13.236;2022-09-03T08:28:59;16.50;99.90
20827;DHT22;10574;52.508;13.236;2022-09-03T08:31:28;16.60;99.90
20827;DHT22;10574;52.508;13.236;2022-09-03T08:33:59;16.90;99.90
20827;DHT22;10574;52.508;13.236;2022-09-03T08:36:34;17.30;99.90
20827;DHT22;10574;52.508;13.236;2022-09-03T08:39:08;17.50;99.90
20827;DHT22;10574;52.508;13.236;2022-09-03T08:44:28;18.40;99.90
20827;DHT22;10574;52.508;13.236;2022-09-03T08:50:06;18.50;99.90
20827;DHT22;10574;52.508;13.236;2022-09-03T08:55:13;18.80;99.90
20827;DHT22;10574;52.508;13.236;2022-09-03T08:57:39;19.10;99.90
20827;DHT22;10574;52.508;13.236;2022-09-03T09:00:07;19.10;99.90
20827;DHT22;10574;52.508;13.236;2022-09-03T09:02:43;19.60;99.90
20827;DHT22;10574;52.508;13.236;2022-09-03T09:05:17;20.10;99.90
20827;DHT22;10574;52.508;13.236;2022-09-03T09:10:46;21.00;99.90
20827;DHT22;10574;52.508;13.236;2022-09-03T09:13:33;20.80;99.90
20827;DHT22;10574;52.508;13.236;2022-09-03T09:16:21;20.10;99.90
20827;DHT22;10574;52.508;13.236;2022-09-03T09:21:35;20.00;99.90
20827;DHT22;10574;52.508;13.236;2022-09-03T09:24:06;19.70;99.90
20827;DHT22;10574;52.508;13.236;2022-09-03T09:26:35;20.00;99.90
20827;DHT22;10574;52.508;13.236;2022-09-03T09:29:07;19.80;99.90
20827;DHT22;10574;52.508;13.236;2022-09-03T09:31:37;19.70;99.90
20827;DHT22;10574;52.508;13.236;2022-09-03T09:34:07;20.30;99.90
20827;DHT22;10574;52.508;13.236;2022-09-03T09:36:41;19.80;99.90
20827;DHT22;10574;52.508;13.236;2022-09-03T09:39:10;20.10;99.90
20827;DHT22;10574;52.508;13.236;2022-09-03T09:41:39;20.20;99.90
20827;DHT22;10574;52.508;13.236;2022-09-03T09:44:07;20.10;99.90
20827;DHT22;10574;52.508;13.236;2022-09-03T09:46:37;20.30;99.90
20827;DHT22;10574;52.508;13.236;2022-09-03T09:49:28;20.50;99.90
20827;DHT22;10574;52.508;13.236;2022-09-03T09:52:11;20.70;99.90
20827;DHT22;10574;52.508;13.236;2022-09-03T09:54:30;20.80;99.90
20827;DHT22;10574;52.508;13.236;2022-09-03T09:57:05;21.10;99.90
20827;DHT22;10574;52.508;13.236;2022-09-03T09:59:29;21.00;99.90
20827;DHT22;10574;52.508;13.236;2022-09-03T10:02:19;20.90;99.90
20827;DHT22;10574;52.508;13.236;2022-09-03T10:04:49;21.30;99.90
20827;DHT22;10574;52.508;13.236;2022-09-03T10:07:28;21.70;99.90
20827;DHT22;10574;52.508;13.236;2022-09-03T10:10:15;21.10;99.50
20827;DHT22;10574;52.508;13.236;2022-09-03T10:12:49;20.50;99.90
20827;DHT22;10574;52.508;13.236;2022-09-03T10:18:02;20.70;99.90
20827;DHT22;10574;52.508;13.236;2022-09-03T10:20:45;21.20;99.30
20827;DHT22;10574;52.508;13.236;2022-09-03T10:23:19;21.80;98.90
20827;DHT22;10574;52.508;13.236;2022-09-03T10:26:10;21.60;96.00
20827;DHT22;10574;52.508;13.236;2022-09-03T10:28:40;21.80;96.00
20827;DHT22;10574;52.508;13.236;2022-09-03T10:34:17;22.40;94.90
20827;DHT22;10574;52.508;13.236;2022-09-03T10:37:20;21.60;93.90
20827;DHT22;10574;52.508;13.236;2022-09-03T10:42:50;20.50;96.10
20827;DHT22;10574;52.508;13.236;2022-09-03T10:48:15;20.60;96.00
20827;DHT22;10574;52.508;13.236;2022-09-03T10:51:05;20.80;95.20
20827;DHT22;10574;52.508;13.236;2022-09-03T10:56:13;20.50;95.80
20827;DHT22;10574;52.508;13.236;2022-09-03T10:58:54;20.40;95.90
20827;DHT22;10574;52.508;13.236;2022-09-03T11:01:44;20.30;96.00
20827;DHT22;10574;52.508;13.236;2022-09-03T11:04:30;20.30;96.20
20827;DHT22;10574;52.508;13.236;2022-09-03T11:07:02;20.30;96.50
20827;DHT22;10574;52.508;13.236;2022-09-03T11:09:37;20.70;96.20
20827;DHT22;10574;52.508;13.236;2022-09-03T11:12:09;21.20;96.00
20827;DHT22;10574;52.508;13.236;2022-09-03T11:14:46;21.80;95.60
20827;DHT22;10574;52.508;13.236;2022-09-03T11:17:29;22.20;93.80
20827;DHT22;10574;52.508;13.236;2022-09-03T11:19:59;22.10;92.50
20827;DHT22;10574;52.508;13.236;2022-09-03T11:22:28;21.90;92.70
20827;DHT22;10574;52.508;13.236;2022-09-03T11:24:58;21.70;93.30
20827;DHT22;10574;52.508;13.236;2022-09-03T11:27:41;21.70;92.60
20827;DHT22;10574;52.508;13.236;2022-09-03T11:30:06;21.40;91.80
20827;DHT22;10574;52.508;13.236;2022-09-03T11:32:49;21.30;94.40
20827;DHT22;10574;52.508;13.236;2022-09-03T11:40:58;21.30;92.10
20827;DHT22;10574;52.508;13.236;2022-09-03T11:43:28;21.30;92.40
20827;DHT22;10574;52.508;13.236;2022-09-03T11:48:52;21.20;91.80
20827;DHT22;10574;52.508;13.236;2022-09-03T11:56:48;21.20;90.80
20827;DHT22;10574;52.508;13.236;2022-09-03T11:59:21;21.20;91.10
20827;DHT22;10574;52.508;13.236;2022-09-03T12:01:52;21.20;90.90
20827;DHT22;10574;52.508;13.236;2022-09-03T12:04:24;21.10;91.00
20827;DHT22;10574;52.508;13.236;2022-09-03T12:10:02;21.30;91.20
20827;DHT22;10574;52.508;13.236;2022-09-03T12:15:57;21.30;91.20
20827;DHT22;10574;52.508;13.236;2022-09-03T12:18:30;21.00;92.00
20827;DHT22;10574;52.508;13.236;2022-09-03T12:21:01;20.90;92.60
20827;DHT22;10574;52.508;13.236;2022-09-03T12:23:44;21.20;92.00
20827;DHT22;10574;52.508;13.236;2022-09-03T12:26:18;21.60;91.20
20827;DHT22;10574;52.508;13.236;2022-09-03T12:28:47;21.80;90.70
20827;DHT22;10574;52.508;13.236;2022-09-03T12:31:20;22.10;85.90
20827;DHT22;10574;52.508;13.236;2022-09-03T12:33:59;22.20;84.60
20827;DHT22;10574;52.508;13.236;2022-09-03T12:36:41;22.60;85.60
20827;DHT22;10574;52.508;13.236;2022-09-03T12:39:15;23.00;82.70
20827;DHT22;10574;52.508;13.236;2022-09-03T12:44:31;22.80;83.80
20827;DHT22;10574;52.508;13.236;2022-09-03T12:47:05;23.00;81.10
20827;DHT22;10574;52.508;13.236;2022-09-03T12:49:41;22.80;82.00
20827;DHT22;10574;52.508;13.236;2022-09-03T12:58:09;23.50;80.40
20827;DHT22;10574;52.508;13.236;2022-09-03T13:00:40;23.30;79.30
20827;DHT22;10574;52.508;13.236;2022-09-03T13:03:25;23.30;79.30
20827;DHT22;10574;52.508;13.236;2022-09-03T13:05:55;23.30;80.80
20827;DHT22;10574;52.508;13.236;2022-09-03T13:08:25;23.60;78.00
20827;DHT22;10574;52.508;13.236;2022-09-03T13:10:58;23.20;78.50
20827;DHT22;10574;52.508;13.236;2022-09-03T13:13:31;22.60;76.60
20827;DHT22;10574;52.508;13.236;2022-09-03T13:16:27;22.30;80.20
20827;DHT22;10574;52.508;13.236;2022-09-03T13:27:22;22.00;80.70
20827;DHT22;10574;52.508;13.236;2022-09-03T13:30:09;21.90;80.30
20827;DHT22;10574;52.508;13.236;2022-09-03T13:35:36;21.60;82.20
20827;DHT22;10574;52.508;13.236;2022-09-03T13:41:17;21.70;81.60
20827;DHT22;10574;52.508;13.236;2022-09-03T13:46:28;21.70;82.20
20827;DHT22;10574;52.508;13.236;2022-09-03T13:49:12;21.60;82.40
20827;DHT22;10574;52.508;13.236;2022-09-03T13:52:00;21.80;83.90
20827;DHT22;10574;52.508;13.236;2022-09-03T13:54:36;21.90;82.80
20827;DHT22;10574;52.508;13.236;2022-09-03T13:57:18;21.70;82.20
20827;DHT22;10574;52.508;13.236;2022-09-03T13:59:47;21.70;82.20
20827;DHT22;10574;52.508;13.236;2022-09-03T14:05:30;22.10;81.20
20827;DHT22;10574;52.508;13.236;2022-09-03T14:13:37;22.30;78.90
20827;DHT22;10574;52.508;13.236;2022-09-03T14:19:14;21.90;80.00
20827;DHT22;10574;52.508;13.236;2022-09-03T14:26:53;21.70;81.00
20827;DHT22;10574;52.508;13.236;2022-09-03T14:29:30;21.90;81.60
20827;DHT22;10574;52.508;13.236;2022-09-03T14:35:11;22.30;80.30
20827;DHT22;10574;52.508;13.236;2022-09-03T14:40:55;22.20;80.30
20827;DHT22;10574;52.508;13.236;2022-09-03T14:43:38;22.10;79.10
20827;DHT22;10574;52.508;13.236;2022-09-03T14:54:37;22.10;79.60
20827;DHT22;10574;52.508;13.236;2022-09-03T14:59:58;22.00;80.20
20827;DHT22;10574;52.508;13.236;2022-09-03T15:05:41;22.00;80.30
20827;DHT22;10574;52.508;13.236;2022-09-03T15:10:57;22.10;79.80
20827;DHT22;10574;52.508;13.236;2022-09-03T15:13:41;22.00;79.70
20827;DHT22;10574;52.508;13.236;2022-09-03T15:24:04;22.20;79.80
20827;DHT22;10574;52.508;13.236;2022-09-03T15:26:32;22.10;78.50
20827;DHT22;10574;52.508;13.236;2022-09-03T15:29:19;22.10;79.30
20827;DHT22;10574;52.508;13.236;2022-09-03T15:32:09;22.20;79.50
20827;DHT22;10574;52.508;13.236;2022-09-03T15:34:42;22.20;79.20
20827;DHT22;10574;52.508;13.236;2022-09-03T15:37:17;21.90;80.60
20827;DHT22;10574;52.508;13.236;2022-09-03T15:39:46;21.80;81.10
20827;DHT22;10574;52.508;13.236;2022-09-03T15:42:24;21.60;81.00
20827;DHT22;10574;52.508;13.236;2022-09-03T15:44:51;21.50;81.50
20827;DHT22;10574;52.508;13.236;2022-09-03T15:47:35;21.50;82.10
20827;DHT22;10574;52.508;13.236;2022-09-03T15:50:11;21.50;82.00
20827;DHT22;10574;52.508;13.236;2022-09-03T15:52:51;21.40;82.30
20827;DHT22;10574;52.508;13.236;2022-09-03T15:55:33;21.40;82.10
20827;DHT22;10574;52.508;13.236;2022-09-03T15:58:30;21.40;82.10
20827;DHT22;10574;52.508;13.236;2022-09-03T16:01:06;21.30;82.70
20827;DHT22;10574;52.508;13.236;2022-09-03T16:03:48;21.30;82.30
20827;DHT22;10574;52.508;13.236;2022-09-03T16:06:32;21.30;82.40
20827;DHT22;10574;52.508;13.236;2022-09-03T16:14:27;21.20;82.80
20827;DHT22;10574;52.508;13.236;2022-09-03T16:22:44;21.10;83.60
20827;DHT22;10574;52.508;13.236;2022-09-03T16:25:15;21.00;83.90
20827;DHT22;10574;52.508;13.236;2022-09-03T16:28:04;21.00;84.70
20827;DHT22;10574;52.508;13.236;2022-09-03T16:30:56;21.00;84.50
20827;DHT22;10574;52.508;13.236;2022-09-03T16:35:54;21.10;84.30
20827;DHT22;10574;52.508;13.236;2022-09-03T16:41:18;21.20;83.70
20827;DHT22;10574;52.508;13.236;2022-09-03T16:46:33;21.20;83.90
20827;DHT22;10574;52.508;13.236;2022-09-03T16:54:51;21.00;85.20
20827;DHT22;10574;52.508;13.236;2022-09-03T16:59:57;21.00;85.30
20827;DHT22;10574;52.508;13.236;2022-09-03T17:10:42;20.80;86.40
20827;DHT22;10574;52.508;13.236;2022-09-03T17:18:49;20.60;87.60
20827;DHT22;10574;52.508;13.236;2022-09-03T17:29:29;20.50;88.20
20827;DHT22;10574;52.508;13.236;2022-09-03T17:32:21;20.40;88.60
20827;DHT22;10574;52.508;13.236;2022-09-03T17:35:15;20.40;88.90
20827;DHT22;10574;52.508;13.236;2022-09-03T17:37:57;20.40;89.70
20827;DHT22;10574;52.508;13.236;2022-09-03T17:40:34;20.30;90.20
20827;DHT22;10574;52.508;13.236;2022-09-03T17:43:10;20.30;90.10
20827;DHT22;10574;52.508;13.236;2022-09-03T17:45:58;20.20;90.40
20827;DHT22;10574;52.508;13.236;2022-09-03T17:53:57;20.00;90.90
20827;DHT22;10574;52.508;13.236;2022-09-03T17:56:29;20.00;91.20
20827;DHT22;10574;52.508;13.236;2022-09-03T17:59:28;19.90;92.00
20827;DHT22;10574;52.508;13.236;2022-09-03T18:01:59;19.90;92.00
20827;DHT22;10574;52.508;13.236;2022-09-03T18:04:52;19.80;92.10
20827;DHT22;10574;52.508;13.236;2022-09-03T18:07:41;19.70;92.20
20827;DHT22;10574;52.508;13.236;2022-09-03T18:13:20;19.60;92.90
20827;DHT22;10574;52.508;13.236;2022-09-03T18:15:57;19.40;93.10
20827;DHT22;10574;52.508;13.236;2022-09-03T18:18:29;19.50;93.20
20827;DHT22;10574;52.508;13.236;2022-09-03T18:21:06;19.50;92.90
20827;DHT22;10574;52.508;13.236;2022-09-03T18:24:00;19.50;93.10
20827;DHT22;10574;52.508;13.236;2022-09-03T18:26:54;19.50;93.70
20827;DHT22;10574;52.508;13.236;2022-09-03T18:29:56;19.50;93.40
20827;DHT22;10574;52.508;13.236;2022-09-03T18:32:42;19.50;93.30
20827;DHT22;10574;52.508;13.236;2022-09-03T18:35:30;19.50;93.20
20827;DHT22;10574;52.508;13.236;2022-09-03T18:38:21;19.60;93.10
20827;DHT22;10574;52.508;13.236;2022-09-03T18:53:35;19.70;92.40
20827;DHT22;10574;52.508;13.236;2022-09-03T18:56:39;19.70;92.40
20827;DHT22;10574;52.508;13.236;2022-09-03T19:23:20;19.40;92.90
20827;DHT22;10574;52.508;13.236;2022-09-03T19:29:45;19.40;93.10
20827;DHT22;10574;52.508;13.236;2022-09-03T19:32:28;19.30;93.70
20827;DHT22;10574;52.508;13.236;2022-09-03T19:35:18;19.20;93.60
20827;DHT22;10574;52.508;13.236;2022-09-03T19:41:04;19.20;93.80
20827;DHT22;10574;52.508;13.236;2022-09-03T19:43:54;19.20;94.70
20827;DHT22;10574;52.508;13.236;2022-09-03T19:46:58;19.20;93.90
20827;DHT22;10574;52.508;13.236;2022-09-03T19:53:12;19.10;94.40
20827;DHT22;10574;52.508;13.236;2022-09-03T19:56:01;19.10;94.20
20827;DHT22;10574;52.508;13.236;2022-09-03T19:58:50;19.10;94.30
20827;DHT22;10574;52.508;13.236;2022-09-03T20:01:37;19.10;94.30
20827;DHT22;10574;52.508;13.236;2022-09-03T20:04:38;19.10;94.50
20827;DHT22;10574;52.508;13.236;2022-09-03T20:07:24;19.00;94.50
20827;DHT22;10574;52.508;13.236;2022-09-03T20:10:12;19.00;94.60
20827;DHT22;10574;52.508;13.236;2022-09-03T20:21:33;19.10;94.80
20827;DHT22;10574;52.508;13.236;2022-09-03T20:30:19;19.00;94.80
20827;DHT22;10574;52.508;13.236;2022-09-03T20:32:21;19.10;94.70
20827;DHT22;10574;52.508;13.236;2022-09-03T20:34:49;19.10;94.70
20827;DHT22;10574;52.508;13.236;2022-09-03T20:37:30;19.00;94.70
20827;DHT22;10574;52.508;13.236;2022-09-03T20:40:10;19.00;94.80
20827;DHT22;10574;52.508;13.236;2022-09-03T20:42:57;19.00;94.60
20827;DHT22;10574;52.508;13.236;2022-09-03T20:45:24;19.00;94.50
20827;DHT22;10574;52.508;13.236;2022-09-03T20:53:39;19.00;94.60
20827;DHT22;10574;52.508;13.236;2022-09-03T20:58:58;19.00;94.70
20827;DHT22;10574;52.508;13.236;2022-09-03T21:01:29;18.90;94.80